Irvington, NY

4:30 PM EDT on May 05, 2015 (GMT -0400)
Tarryhill | | Change Station
CLOSE
Current Station
Personal Weather Station
Location: Tarrytown, NY
Elevation: 323 ft
Nearby Weather Stations

Elev 323 ft 41.05 °N, 73.85 °W | Updated 7 seconds ago

Partly Cloudy
Partly Cloudy
80.4 °F
Feels Like 81 °F
N
3.5
Wind Variable Wind from SSW
Gusts 3.5 mph

Today
High -- | Low -- °F
--% Chance of Precip.
Yesterday
High -- | Low -- °F
Precip. -- in
5:48 AM 7:56 PM
Full, 97% visible
Pressure 30.14 in
Visibility 10.0 miles
Clouds Scattered Clouds 6500 ft
Heat Index 81 °F
Dew Point 57 °F
Humidity 45%
Rainfall 0.00 in
Snow Depth Not available.
UV 5 out of 12
Pollen 10.00 out of 12
Air Quality Not available.
Flu Activity Widespread
METAR KHPN 051956Z 30006KT 10SM SCT065 27/11 A3016 RMK AO2 SLP206 T02670111 $

More Conditions Fewer Conditions

Pressure 30.14 in
Visibility 10.0 miles
Clouds Scattered Clouds 6500 ft
Heat Index 81 °F
Dew Point 57 °F
Humidity 45%
Rainfall 0.00 in
Snow Depth Not available.
UV 5 out of 12
Pollen 10.00 out of 12
Air Quality Not available.
Flu Activity Widespread
METAR KHPN 051956Z 30006KT 10SM SCT065 27/11 A3016 RMK AO2 SLP206 T02670111 $

More Conditions Fewer Conditions

10-Day Weather Forecast

Almanac

Astronomy

May. 05, 2015 Rise Set
Actual Time
Civil Twilight
Nautical Twilight
Astronomical Twilight
Moon
Length of Visible Light
Length of Day
Tomorrow will be .
, % of the Moon is Illuminated

Today's Extremes

State Highs State Lows

Community

WunderPhotos

Upload Photos

1,818,970 photos uploaded!

WunderBlogs® & News

Nearby

Air Quality

  Air Quality AQ Index Pollutant
Not available.

Snow Depth

Station Depth Elevation

Earthquake Activity

City Distance Mag. Time & Date
Minimum magnitude displayed is 2.5.

Coastal Water Temperatures

Place Temperature

Stations

Nearby Weather Stations

Station Location Temp. Windchill Dew Point Humidity Wind Precip. Elev Updated Type